createdAt,value
2018-12-06T00:15:43.099Z,7.80
2018-12-06T00:20:47.111Z,7.97
2018-12-06T00:25:51.340Z,7.22
2018-12-06T00:30:54.886Z,7.70
2018-12-06T00:35:58.402Z,7.40
2018-12-06T00:41:02.148Z,6.70
2018-12-06T00:46:06.141Z,7.57
2018-12-06T00:51:09.637Z,7.87
2018-12-06T00:56:13.172Z,6.63
2018-12-06T01:01:18.500Z,7.53
2018-12-06T01:06:22.773Z,8.67
2018-12-06T01:11:28.459Z,8.03
2018-12-06T01:16:32.395Z,8.10
2018-12-06T01:21:36.350Z,7.43
2018-12-06T01:26:41.718Z,6.23
2018-12-06T01:31:45.494Z,5.80
2018-12-06T01:36:49.190Z,6.67
2018-12-06T01:41:53.171Z,6.77
2018-12-06T01:46:56.745Z,6.57
2018-12-06T01:52:00.260Z,7.33
2018-12-06T01:57:03.875Z,6.67
2018-12-06T02:02:07.538Z,6.10
2018-12-06T02:07:11.095Z,6.10
2018-12-06T02:12:14.628Z,5.73
2018-12-06T02:17:18.583Z,5.10
2018-12-06T02:22:22.470Z,4.77
2018-12-06T02:27:27.349Z,5.27
2018-12-06T02:32:31.226Z,6.80
2018-12-06T02:37:35.261Z,7.80
2018-12-06T02:42:39.930Z,8.13
2018-12-06T02:47:43.471Z,8.57
2018-12-06T02:52:47.096Z,7.80
2018-12-06T02:57:50.565Z,7.55
2018-12-06T03:02:54.100Z,6.55
2018-12-06T03:07:57.673Z,7.03
2018-12-06T03:13:01.620Z,6.80
2018-12-06T03:18:06.970Z,6.50
2018-12-06T03:23:10.998Z,6.03
2018-12-06T03:28:15.429Z,6.87
2018-12-06T03:33:19.420Z,5.67
2018-12-06T03:38:23.388Z,6.37
2018-12-06T03:43:27.286Z,6.80
2018-12-06T03:48:31.163Z,5.50
2018-12-06T03:53:34.964Z,6.03
2018-12-06T03:58:38.531Z,7.57
2018-12-06T04:03:42.086Z,6.00
2018-12-06T04:08:45.586Z,6.37
2018-12-06T04:13:50.403Z,6.30
2018-12-06T04:18:55.331Z,6.43
2018-12-06T04:23:59.853Z,7.53
2018-12-06T04:29:03.565Z,8.10
2018-12-06T04:34:08.053Z,6.90
2018-12-06T04:39:12.444Z,6.60
2018-12-06T04:44:16.493Z,5.37
2018-12-06T04:49:21.212Z,6.42
2018-12-06T04:54:25.326Z,5.83
2018-12-06T04:59:29.429Z,6.30
2018-12-06T05:04:32.978Z,5.83
2018-12-06T05:09:37.700Z,4.97
2018-12-06T05:14:41.285Z,5.67
2018-12-06T05:19:44.807Z,5.12
2018-12-06T05:24:48.524Z,5.10
2018-12-06T05:29:52.019Z,5.57
2018-12-06T05:34:55.641Z,5.83
2018-12-06T05:39:59.699Z,5.33
2018-12-06T05:45:04.278Z,5.40
2018-12-06T05:50:09.050Z,4.97
2018-12-06T05:55:12.756Z,5.10
2018-12-06T06:00:16.327Z,4.07
2018-12-06T06:05:19.881Z,4.67
2018-12-06T06:10:23.668Z,4.33
2018-12-06T06:15:27.336Z,4.72
2018-12-06T06:20:31.061Z,5.03
2018-12-06T06:25:34.632Z,4.37
2018-12-06T06:30:38.198Z,6.75
2018-12-06T06:35:41.757Z,9.23
2018-12-06T06:40:45.362Z,8.27
2018-12-06T06:45:48.948Z,8.30
2018-12-06T06:50:52.591Z,7.20
2018-12-06T06:55:56.077Z,9.93
2018-12-06T07:00:59.770Z,8.20
2018-12-06T07:06:07.230Z,6.97
2018-12-06T07:11:11.958Z,8.67
2018-12-06T07:16:15.441Z,7.07
2018-12-06T07:21:19.365Z,8.40
2018-12-06T07:26:22.846Z,6.83
2018-12-06T07:31:28.071Z,7.20
2018-12-06T07:36:32.633Z,7.17
2018-12-06T07:41:36.817Z,7.30
2018-12-06T07:47:17.168Z,8.00
2018-12-06T07:52:20.857Z,7.87
2018-12-06T07:57:24.676Z,6.90
2018-12-06T08:02:28.628Z,6.93
2018-12-06T08:07:32.625Z,6.07
2018-12-06T08:12:36.293Z,5.53
2018-12-06T08:17:39.979Z,5.47
2018-12-06T08:22:43.903Z,5.40
2018-12-06T08:27:48.194Z,5.65
2018-12-06T08:32:51.744Z,4.60
2018-12-06T08:37:55.242Z,5.80
2018-12-06T08:42:58.917Z,4.50
2018-12-06T08:48:02.444Z,4.17
2018-12-06T08:53:06.038Z,4.07
2018-12-06T08:58:11.371Z,3.80
2018-12-06T09:03:14.918Z,3.57
2018-12-06T09:08:18.468Z,3.20
2018-12-06T09:13:22.554Z,2.90
2018-12-06T09:18:26.569Z,2.73
2018-12-06T09:23:30.512Z,2.70
2018-12-06T09:28:34.512Z,3.20
2018-12-06T09:33:48.355Z,2.37
2018-12-06T09:38:52.148Z,2.00
2018-12-06T09:43:56.283Z,2.80
2018-12-06T09:49:00.135Z,2.00
2018-12-06T09:54:04.343Z,2.13
2018-12-06T09:59:08.733Z,1.90
2018-12-06T10:04:12.417Z,2.13
2018-12-06T10:09:16.238Z,1.80
2018-12-06T10:14:19.845Z,1.93
2018-12-06T10:19:23.472Z,1.50
2018-12-06T10:24:26.930Z,1.40
2018-12-06T10:29:30.454Z,1.43
2018-12-06T10:34:34.112Z,1.53
2018-12-06T10:39:37.580Z,1.50
2018-12-06T10:44:41.430Z,1.30
2018-12-06T10:49:44.901Z,1.20
2018-12-06T10:54:48.360Z,1.50
2018-12-06T10:59:51.804Z,1.40
2018-12-06T11:04:55.337Z,1.70
2018-12-06T11:09:59.028Z,1.17
2018-12-06T11:15:02.670Z,1.17
2018-12-06T11:20:06.585Z,1.20
2018-12-06T11:25:10.065Z,1.20
2018-12-06T11:30:13.564Z,1.47
2018-12-06T11:35:17.128Z,1.35
2018-12-06T11:40:20.648Z,1.37
2018-12-06T11:45:24.229Z,1.20
2018-12-06T11:50:27.714Z,1.00
2018-12-06T11:55:31.328Z,1.20
2018-12-06T12:00:35.811Z,0.90
2018-12-06T12:05:39.721Z,0.97
2018-12-06T12:10:43.831Z,1.10
2018-12-06T12:15:47.822Z,0.90
2018-12-06T12:20:52.345Z,0.80
2018-12-06T12:25:56.489Z,1.00
2018-12-06T12:31:00.154Z,0.93
2018-12-06T12:36:03.808Z,1.20
2018-12-06T12:41:07.483Z,0.87
2018-12-06T12:46:11.169Z,1.60
2018-12-06T12:51:14.707Z,0.87
2018-12-06T12:56:18.377Z,1.00
2018-12-06T13:01:22.037Z,1.00
2018-12-06T13:06:25.783Z,0.82
2018-12-06T13:11:29.281Z,1.07
2018-12-06T13:16:32.985Z,1.10
2018-12-06T13:21:36.505Z,0.90
2018-12-06T13:26:40.040Z,0.80
2018-12-06T13:31:43.844Z,1.00
2018-12-06T13:36:47.345Z,0.93
2018-12-06T13:41:50.940Z,0.80
2018-12-06T13:46:54.462Z,0.70
2018-12-06T13:51:58.609Z,0.73
2018-12-06T13:57:02.409Z,0.90
2018-12-06T14:02:06.367Z,0.80
2018-12-06T14:07:10.249Z,0.87
2018-12-06T14:12:14.048Z,0.57
2018-12-06T14:17:18.272Z,0.60
2018-12-06T14:22:22.103Z,0.50
2018-12-06T14:27:26.061Z,0.50
2018-12-06T14:32:30.621Z,0.40
2018-12-06T14:37:34.445Z,0.60
2018-12-06T14:42:38.160Z,0.60
2018-12-06T14:47:43.614Z,0.70
2018-12-06T14:52:47.970Z,0.80
2018-12-06T14:57:53.897Z,0.60
2018-12-06T15:02:59.542Z,0.62
2018-12-06T15:08:04.877Z,0.70
2018-12-06T15:13:08.874Z,0.60
2018-12-06T15:18:13.301Z,0.70
2018-12-06T15:23:17.511Z,0.70
2018-12-06T15:28:21.548Z,0.90
2018-12-06T15:33:25.203Z,0.60
2018-12-06T15:38:28.785Z,0.87
2018-12-06T15:43:32.381Z,0.87
2018-12-06T15:48:35.993Z,0.80
2018-12-06T15:53:39.694Z,0.90
2018-12-06T15:58:43.346Z,0.80
2018-12-06T16:03:47.371Z,1.00
2018-12-06T16:08:53.043Z,0.90
2018-12-06T16:13:57.284Z,0.93
2018-12-06T16:19:03.017Z,1.10
2018-12-06T16:24:06.640Z,0.97
2018-12-06T16:29:11.273Z,0.90
2018-12-06T16:34:22.218Z,0.93
2018-12-06T16:39:27.113Z,0.90
2018-12-06T16:44:30.583Z,1.10
2018-12-06T16:49:34.394Z,0.80
2018-12-06T16:54:38.044Z,0.90
2018-12-06T16:59:41.557Z,0.90
2018-12-06T17:04:46.159Z,1.00
2018-12-06T17:09:49.835Z,0.97
2018-12-06T17:20:08.487Z,1.10
2018-12-06T17:25:12.662Z,1.20
2018-12-06T17:30:16.667Z,1.20
2018-12-06T17:35:21.591Z,1.37
2018-12-06T17:40:25.513Z,1.37
2018-12-06T17:45:29.053Z,1.00
2018-12-06T17:50:32.892Z,1.10
2018-12-06T17:55:43.280Z,0.93
2018-12-06T18:00:47.009Z,0.97
2018-12-06T18:05:50.505Z,0.97
2018-12-06T18:10:54.700Z,0.80
2018-12-06T18:15:58.597Z,1.05
2018-12-06T18:21:02.741Z,0.90
2018-12-06T18:26:06.830Z,1.10
2018-12-06T18:31:11.063Z,0.90
2018-12-06T18:36:15.494Z,0.70
2018-12-06T18:41:19.299Z,0.90
2018-12-06T18:46:23.145Z,0.90
2018-12-06T18:51:26.837Z,0.78
2018-12-06T18:56:30.548Z,0.70
2018-12-06T19:01:34.231Z,0.80
2018-12-06T19:06:44.952Z,0.70
2018-12-06T19:11:48.483Z,0.60
2018-12-06T19:16:52.214Z,1.05
2018-12-06T19:21:55.964Z,0.70
2018-12-06T19:27:01.434Z,0.50
2018-12-06T19:32:06.409Z,0.55
2018-12-06T19:37:10.134Z,0.50
2018-12-06T19:42:13.663Z,0.50
2018-12-06T19:47:17.721Z,0.60
2018-12-06T19:52:21.610Z,0.60
2018-12-06T19:57:25.131Z,0.50
2018-12-06T20:02:29.221Z,0.40
2018-12-06T20:07:33.023Z,0.72
2018-12-06T20:12:36.842Z,0.60
2018-12-06T20:17:40.737Z,0.90
2018-12-06T20:22:44.929Z,0.77
2018-12-06T20:27:50.461Z,0.73
2018-12-06T20:32:54.266Z,0.70
2018-12-06T20:37:57.717Z,0.77
2018-12-06T20:43:01.493Z,0.80
2018-12-06T20:48:05.154Z,0.80
2018-12-06T20:53:08.745Z,0.90
2018-12-06T20:58:15.222Z,0.90
2018-12-06T21:03:19.270Z,0.60
2018-12-06T21:08:23.534Z,0.50
2018-12-06T21:13:27.174Z,0.70
2018-12-06T21:18:30.895Z,0.60
2018-12-06T21:23:37.062Z,0.70
2018-12-06T21:28:41.025Z,0.60
2018-12-06T21:33:46.524Z,0.60
2018-12-06T21:39:05.080Z,0.60
2018-12-06T21:44:21.832Z,0.60
2018-12-06T21:49:25.337Z,0.50
2018-12-06T21:54:28.981Z,0.50
2018-12-06T21:59:32.602Z,0.50
2018-12-06T22:04:36.340Z,0.40
2018-12-06T22:09:40.152Z,0.50
2018-12-06T22:14:44.277Z,0.50
2018-12-06T22:19:49.367Z,0.40
2018-12-06T22:24:53.622Z,0.50
2018-12-06T22:29:58.514Z,0.40
2018-12-06T22:35:02.137Z,0.40
2018-12-06T22:40:06.345Z,0.70
2018-12-06T22:45:25.257Z,0.57
2018-12-06T22:50:28.881Z,0.60
2018-12-06T22:55:33.653Z,0.50
2018-12-06T23:00:37.788Z,0.55
2018-12-06T23:05:42.022Z,0.50
2018-12-06T23:10:46.360Z,0.70
2018-12-06T23:15:50.836Z,0.47
2018-12-06T23:20:54.486Z,0.60
2018-12-06T23:25:58.084Z,0.50
2018-12-06T23:31:01.593Z,0.50
2018-12-06T23:36:05.604Z,0.60
2018-12-06T23:41:09.834Z,0.60
2018-12-06T23:46:13.758Z,0.70
2018-12-06T23:51:29.729Z,0.80
2018-12-06T23:56:33.443Z,0.60
